Time;durP1;ratioP1;P1;durP2;ratioP2;P2;SDS_P1;SDS_P2;PMS_P1;PMS_P2;Temp;Humidity;BMP_temperature;BMP_pressure;BME280_temperature;BME280_humidity;BME280_pressure;Samples;Min_cycle;Max_cycle;Signal;HPM_P1;HPM_P2
2022/04/02 00:00:16;;;;;;;17.45;11.40;;;0.20;99.90;;;;;;5056614;28;20383;-75
2022/04/02 00:02:42;;;;;;;17.10;11.07;;;0.50;99.90;;;;;;5029817;28;20549;-76
2022/04/02 00:05:09;;;;;;;15.02;11.32;;;0.30;99.90;;;;;;5052488;28;20029;-75
2022/04/02 00:07:35;;;;;;;14.50;11.13;;;0.20;99.90;;;;;;5028141;28;20021;-76
2022/04/02 00:10:01;;;;;;;14.93;10.85;;;0.30;99.90;;;;;;5051288;28;20024;-76
2022/04/02 00:12:27;;;;;;;24.13;11.50;;;0.30;99.90;;;;;;5044690;28;20029;-76
2022/04/02 00:14:52;;;;;;;15.05;10.80;;;0.20;99.90;;;;;;5050225;28;20024;-75
2022/04/02 00:17:18;;;;;;;16.20;11.07;;;0.20;99.90;;;;;;5047711;28;20052;-75
2022/04/02 00:19:44;;;;;;;17.20;12.10;;;0.20;99.90;;;;;;5044750;28;20467;-76
2022/04/02 00:22:10;;;;;;;16.75;12.23;;;0.20;99.90;;;;;;5046196;28;20397;-75
2022/04/02 00:24:35;;;;;;;15.80;10.65;;;0.20;99.90;;;;;;5046336;28;20100;-76
2022/04/02 00:27:01;;;;;;;16.02;10.07;;;0.10;99.90;;;;;;5047588;28;20035;-76
2022/04/02 00:29:27;;;;;;;13.60;10.70;;;0.10;99.90;;;;;;5049311;28;20021;-76
2022/04/02 00:31:53;;;;;;;22.05;11.80;;;0.10;99.90;;;;;;5048748;28;20017;-76
2022/04/02 00:34:18;;;;;;;16.83;10.25;;;0.20;99.90;;;;;;5035356;28;20025;-75
2022/04/02 00:36:45;;;;;;;12.25;10.70;;;0.20;99.90;;;;;;5045798;28;20032;-75
2022/04/02 00:39:10;;;;;;;18.88;11.43;;;0.30;99.90;;;;;;5052471;28;20023;-77
2022/04/02 00:41:36;;;;;;;16.52;10.90;;;0.30;99.90;;;;;;5021880;28;20104;-75
2022/04/02 00:44:21;;;;;;;15.07;10.85;;;0.30;99.90;;;;;;5049295;28;20083;-75
2022/04/02 00:46:47;;;;;;;21.48;10.68;;;0.30;99.90;;;;;;5048008;28;20013;-77
2022/04/02 00:49:15;;;;;;;13.15;6.05;;;0.30;99.90;;;;;;5046066;28;20487;-75
2022/04/02 00:51:42;;;;;;;10.55;5.80;;;0.40;99.90;;;;;;5050729;28;20039;-77
2022/04/02 00:54:09;;;;;;;10.77;4.95;;;0.60;99.90;;;;;;5050437;28;20032;-77
2022/04/02 00:56:37;;;;;;;9.55;5.22;;;0.60;99.90;;;;;;5045049;28;20022;-77
2022/04/02 00:59:03;;;;;;;12.88;5.28;;;0.70;99.90;;;;;;5049258;28;20419;-77
2022/04/02 01:01:29;;;;;;;11.65;5.20;;;0.70;99.90;;;;;;5049817;28;20021;-77
2022/04/02 01:03:54;;;;;;;9.93;4.82;;;0.70;99.90;;;;;;5046616;28;20025;-77
2022/04/02 01:06:20;;;;;;;12.55;5.07;;;0.80;99.90;;;;;;5049041;28;20017;-77
2022/04/02 01:08:46;;;;;;;10.10;4.82;;;0.70;99.90;;;;;;5046115;28;20030;-76
2022/04/02 01:11:12;;;;;;;11.32;5.38;;;0.70;99.90;;;;;;5045456;28;20336;-76
2022/04/02 01:13:37;;;;;;;9.75;4.60;;;0.70;99.90;;;;;;5046298;28;20392;-76
2022/04/02 01:16:03;;;;;;;9.63;4.80;;;0.70;99.90;;;;;;5046986;28;20444;-76
2022/04/02 01:18:29;;;;;;;6.53;5.07;;;0.70;99.90;;;;;;5046882;28;20079;-76
2022/04/02 01:20:55;;;;;;;11.13;5.57;;;0.70;99.90;;;;;;5050955;28;20395;-76
2022/04/02 01:23:28;;;;;;;8.27;5.40;;;0.70;99.90;;;;;;5038164;28;20057;-75
2022/04/02 01:25:53;;;;;;;10.93;5.35;;;0.60;99.90;;;;;;5022584;28;20029;-75
2022/04/02 01:28:18;;;;;;;9.52;5.40;;;0.50;99.90;;;;;;4996669;28;20030;-75
2022/04/02 01:30:44;;;;;;;10.90;5.78;;;0.50;99.90;;;;;;5013990;28;20026;-75
2022/04/02 01:33:09;;;;;;;10.65;5.38;;;0.40;99.90;;;;;;5016623;28;20064;-75
2022/04/02 01:35:35;;;;;;;14.48;5.40;;;0.50;99.90;;;;;;4996425;28;20030;-75
2022/04/02 01:38:01;;;;;;;9.88;5.32;;;0.40;99.90;;;;;;5014172;28;20030;-75
2022/04/02 01:40:26;;;;;;;9.27;5.30;;;0.50;99.90;;;;;;5019667;28;20021;-75
2022/04/02 01:42:52;;;;;;;11.43;5.90;;;0.40;99.90;;;;;;5023261;28;20076;-76
2022/04/02 01:45:17;;;;;;;12.18;5.53;;;0.40;99.90;;;;;;5013971;28;20030;-74
2022/04/02 01:47:43;;;;;;;11.52;5.72;;;0.40;99.90;;;;;;5030105;28;20495;-74
2022/04/02 01:50:10;;;;;;;8.48;5.65;;;0.30;99.90;;;;;;5025334;28;20026;-75
2022/04/02 01:52:36;;;;;;;10.95;6.13;;;0.30;99.90;;;;;;5028949;28;20384;-74
2022/04/02 01:55:01;;;;;;;9.25;5.95;;;0.30;99.90;;;;;;5013691;28;20037;-75
2022/04/02 01:57:27;;;;;;;12.25;6.55;;;0.30;99.90;;;;;;5013977;28;20041;-76
2022/04/02 01:59:53;;;;;;;11.43;5.97;;;0.20;99.90;;;;;;5023457;28;20107;-76
2022/04/02 02:02:20;;;;;;;18.67;6.30;;;0.20;99.90;;;;;;5026428;28;20526;-75
2022/04/02 02:04:45;;;;;;;9.02;6.18;;;0.30;99.90;;;;;;5013359;28;20036;-74
2022/04/02 02:07:11;;;;;;;12.95;6.65;;;0.20;99.90;;;;;;5013535;28;20395;-74
2022/04/02 02:09:37;;;;;;;12.20;6.45;;;0.20;99.90;;;;;;5023022;28;20075;-75
2022/04/02 02:12:03;;;;;;;12.48;6.63;;;0.20;99.90;;;;;;5033200;28;20502;-75
2022/04/02 02:14:29;;;;;;;13.38;6.47;;;0.20;99.90;;;;;;5048537;28;20109;-75
2022/04/02 02:16:58;;;;;;;10.48;7.75;;;0.10;99.90;;;;;;5033102;28;20057;-77
2022/04/02 02:19:24;;;;;;;12.35;7.53;;;0.10;99.90;;;;;;5032934;28;20104;-75
2022/04/02 02:21:50;;;;;;;8.40;7.22;;;0.00;99.90;;;;;;5047987;28;20505;-75
2022/04/02 02:24:16;;;;;;;12.50;8.10;;;0.10;99.90;;;;;;5032927;28;20104;-75
2022/04/02 02:26:42;;;;;;;15.30;9.10;;;0.00;99.90;;;;;;5016392;28;20018;-75
2022/04/02 02:29:07;;;;;;;12.45;9.85;;;-0.10;99.90;;;;;;5013174;28;20026;-74
2022/04/02 02:31:34;;;;;;;17.23;11.50;;;-0.10;99.90;;;;;;5015352;28;20018;-74
2022/04/02 02:36:44;;;;;;;16.95;14.48;;;-0.20;99.90;;;;;;5023423;28;20538;-74
2022/04/02 02:39:09;;;;;;;16.55;14.57;;;-0.30;99.90;;;;;;5020266;28;20025;-74
2022/04/02 02:41:35;;;;;;;19.10;14.02;;;-0.30;99.90;;;;;;5021831;28;20026;-74
2022/04/02 02:44:01;;;;;;;17.95;15.70;;;-0.30;99.90;;;;;;5018103;28;20026;-75
2022/04/02 02:46:26;;;;;;;21.17;14.82;;;-0.30;99.90;;;;;;5025539;28;20029;-76
2022/04/02 02:48:52;;;;;;;18.70;15.48;;;-0.40;99.90;;;;;;5020471;28;20332;-75
2022/04/02 02:51:18;;;;;;;17.83;14.43;;;-0.40;99.90;;;;;;5017675;28;20018;-75
2022/04/02 02:53:46;;;;;;;17.52;14.65;;;-0.40;99.90;;;;;;5027084;28;20029;-75
2022/04/02 02:56:11;;;;;;;18.45;15.48;;;-0.50;99.90;;;;;;5001101;28;20022;-75
2022/04/02 02:58:37;;;;;;;19.45;16.10;;;-0.40;99.90;;;;;;5012620;28;20088;-74
2022/04/02 03:01:04;;;;;;;18.63;15.93;;;-0.50;99.90;;;;;;5012272;28;20116;-74
2022/04/02 03:03:31;;;;;;;22.25;17.75;;;-0.50;99.90;;;;;;5012360;28;20504;-75
2022/04/02 03:05:56;;;;;;;21.58;18.00;;;-0.50;99.90;;;;;;5012401;28;20022;-74
2022/04/02 03:08:22;;;;;;;19.65;17.58;;;-0.50;99.90;;;;;;5012498;28;20018;-73
2022/04/02 03:10:47;;;;;;;21.83;18.02;;;-0.50;99.90;;;;;;5012102;28;20033;-75
2022/04/02 03:13:14;;;;;;;20.88;18.45;;;-0.50;99.90;;;;;;5012312;28;20117;-75
2022/04/02 03:15:40;;;;;;;21.77;19.20;;;-0.50;99.90;;;;;;5012049;28;20496;-73
2022/04/02 03:18:07;;;;;;;22.48;18.42;;;-0.50;99.90;;;;;;5012306;28;20040;-74
2022/04/02 03:20:33;;;;;;;22.35;18.33;;;-0.50;99.90;;;;;;5012018;28;20026;-73
2022/04/02 03:22:59;;;;;;;21.95;19.65;;;-0.60;99.90;;;;;;5027940;28;20533;-74
2022/04/02 03:25:24;;;;;;;23.98;18.45;;;-0.50;99.90;;;;;;5030656;28;20029;-74
2022/04/02 03:27:50;;;;;;;24.88;19.67;;;-0.60;99.90;;;;;;5027122;28;20096;-74
2022/04/02 03:30:18;;;;;;;23.42;18.77;;;-0.70;99.90;;;;;;5002827;28;20116;-75
2022/04/02 03:32:44;;;;;;;21.73;18.75;;;-0.70;99.90;;;;;;5025424;28;20546;-74
2022/04/02 03:35:11;;;;;;;21.33;19.02;;;-0.70;99.90;;;;;;5007191;28;20133;-73
2022/04/02 03:37:37;;;;;;;20.42;18.30;;;-0.60;99.90;;;;;;5024806;28;20013;-73
2022/04/02 03:40:07;;;;;;;21.35;19.15;;;-0.60;99.90;;;;;;5023256;28;20034;-73
2022/04/02 03:42:33;;;;;;;21.88;19.52;;;-0.50;99.90;;;;;;5011594;28;20075;-74
2022/04/02 03:44:59;;;;;;;24.30;20.15;;;-0.40;99.90;;;;;;5012248;28;20034;-74
2022/04/02 03:47:24;;;;;;;28.05;20.73;;;-0.50;99.90;;;;;;5025478;28;20026;-73
2022/04/02 03:49:51;;;;;;;26.02;22.65;;;-0.50;99.90;;;;;;5031630;28;20032;-75
2022/04/02 03:52:17;;;;;;;26.42;22.13;;;-0.50;99.90;;;;;;5031444;28;20105;-75
2022/04/02 03:54:43;;;;;;;22.25;19.90;;;-0.60;99.90;;;;;;5032028;28;20115;-75
2022/04/02 03:57:10;;;;;;;21.70;19.23;;;-0.60;99.90;;;;;;5031319;28;20051;-75
2022/04/02 03:59:36;;;;;;;23.77;21.27;;;-0.60;99.90;;;;;;5046655;28;20622;-75
2022/04/02 04:02:04;;;;;;;22.50;20.10;;;-0.50;99.90;;;;;;5031110;28;20075;-74
2022/04/02 04:04:30;;;;;;;22.17;18.83;;;-0.50;99.90;;;;;;5030180;28;20554;-75
2022/04/02 04:06:56;;;;;;;23.30;20.20;;;-0.60;99.90;;;;;;5030390;28;20167;-76
2022/04/02 04:09:22;;;;;;;23.55;20.33;;;-0.50;99.90;;;;;;5044895;28;20160;-76
2022/04/02 04:11:48;;;;;;;25.17;22.58;;;-0.50;99.90;;;;;;5030440;28;20128;-75
2022/04/02 04:14:14;;;;;;;25.65;22.90;;;-0.50;99.90;;;;;;5022971;28;20473;-76
2022/04/02 04:16:41;;;;;;;23.25;20.83;;;-0.50;99.90;;;;;;5005216;28;20056;-76
2022/04/02 04:19:06;;;;;;;26.75;23.65;;;-0.50;99.90;;;;;;5040715;28;20029;-76
2022/04/02 04:21:34;;;;;;;29.10;24.55;;;-0.50;99.90;;;;;;5030786;28;20017;-75
2022/04/02 04:24:00;;;;;;;29.73;26.50;;;-0.50;99.90;;;;;;5030507;28;20109;-75
2022/04/02 04:26:26;;;;;;;27.80;24.33;;;-0.50;99.90;;;;;;5028543;28;20033;-75
2022/04/02 04:28:51;;;;;;;30.02;24.83;;;-0.50;99.90;;;;;;5011427;28;20072;-74
2022/04/02 04:31:18;;;;;;;28.98;26.08;;;-0.60;99.90;;;;;;5013681;28;20442;-75
2022/04/02 04:33:47;;;;;;;32.13;28.25;;;-0.60;99.90;;;;;;5010111;28;20026;-74
2022/04/02 04:36:15;;;;;;;33.42;28.23;;;-0.60;99.90;;;;;;5011243;28;20064;-75
2022/04/02 04:38:41;;;;;;;27.98;24.98;;;-0.60;99.90;;;;;;5011516;28;20030;-74
2022/04/02 04:41:07;;;;;;;30.60;26.05;;;-0.50;99.90;;;;;;5011465;28;20027;-74
2022/04/02 04:43:34;;;;;;;28.17;24.20;;;-0.60;99.90;;;;;;5029023;28;20025;-74
2022/04/02 04:46:02;;;;;;;28.48;24.02;;;-0.60;99.90;;;;;;5026692;28;20026;-74
2022/04/02 04:48:28;;;;;;;28.70;23.58;;;-0.60;99.90;;;;;;5015082;28;20029;-72
2022/04/02 04:50:53;;;;;;;24.90;22.25;;;-0.60;99.90;;;;;;5013445;28;20026;-76
2022/04/02 04:53:19;;;;;;;22.73;20.33;;;-0.60;99.90;;;;;;5014768;28;20026;-75
2022/04/02 04:55:44;;;;;;;23.52;21.02;;;-0.60;99.90;;;;;;5014740;28;20538;-75
2022/04/02 04:58:10;;;;;;;19.52;17.42;;;-0.70;99.90;;;;;;5006953;28;20483;-75
2022/04/02 05:00:36;;;;;;;19.48;17.42;;;-0.70;99.90;;;;;;5020107;28;20083;-75
2022/04/02 05:03:03;;;;;;;16.00;11.68;;;-0.60;99.90;;;;;;5033084;28;20041;-75
2022/04/02 05:05:34;;;;;;;13.43;9.60;;;-0.70;99.90;;;;;;5028996;28;20089;-75
2022/04/02 05:08:00;;;;;;;13.98;8.73;;;-0.80;99.90;;;;;;5032185;28;20419;-76
2022/04/02 05:10:26;;;;;;;13.68;9.68;;;-0.80;99.90;;;;;;5030542;28;20609;-75
2022/04/02 05:12:52;;;;;;;9.52;8.45;;;-0.80;99.90;;;;;;5013191;28;20025;-75
2022/04/02 05:15:18;;;;;;;10.20;7.97;;;-0.80;99.90;;;;;;5014506;28;20031;-75
2022/04/02 05:17:43;;;;;;;10.38;7.90;;;-0.90;99.90;;;;;;5014464;28;20033;-71
2022/04/02 05:20:13;;;;;;;11.13;7.78;;;-0.80;99.90;;;;;;5014332;28;20029;-74
2022/04/02 05:22:39;;;;;;;13.20;8.20;;;-0.70;99.90;;;;;;5014821;28;20022;-75
2022/04/02 05:25:05;;;;;;;10.88;8.35;;;-0.80;99.90;;;;;;5029471;28;20037;-75
2022/04/02 05:27:32;;;;;;;12.02;8.15;;;-0.70;99.90;;;;;;5021956;28;20379;-75
2022/04/02 05:29:58;;;;;;;14.63;9.23;;;-0.70;99.90;;;;;;5026981;28;20022;-75
2022/04/02 05:32:24;;;;;;;12.63;8.23;;;-0.60;99.90;;;;;;5027628;28;20028;-75
2022/04/02 05:34:49;;;;;;;11.00;8.20;;;-0.70;99.90;;;;;;5016551;28;20057;-75
2022/04/02 05:37:15;;;;;;;9.20;7.88;;;-0.70;99.90;;;;;;5012759;28;20456;-76
2022/04/02 05:39:44;;;;;;;9.63;8.00;;;-0.70;99.90;;;;;;5014056;28;20029;-76
2022/04/02 05:42:11;;;;;;;8.73;7.13;;;-0.60;99.90;;;;;;5022758;28;20025;-75
2022/04/02 05:44:36;;;;;;;9.30;7.32;;;-0.60;99.90;;;;;;5017511;28;20092;-76
2022/04/02 05:47:02;;;;;;;8.98;7.95;;;-0.60;99.90;;;;;;5024705;28;20475;-75
2022/04/02 05:49:28;;;;;;;8.02;7.15;;;-0.50;99.90;;;;;;5022132;28;20025;-74
2022/04/02 05:51:53;;;;;;;10.13;7.15;;;-0.60;99.90;;;;;;5032143;28;20068;-74
2022/04/02 05:54:19;;;;;;;8.93;7.00;;;-0.60;99.90;;;;;;5029504;28;20057;-76
2022/04/02 05:56:45;;;;;;;9.07;6.80;;;-0.60;99.90;;;;;;5024208;28;20105;-75
2022/04/02 05:59:10;;;;;;;8.77;7.40;;;-0.60;99.90;;;;;;5020414;28;20395;-76
2022/04/02 06:01:36;;;;;;;8.30;6.93;;;-0.50;99.90;;;;;;5032073;28;20021;-75
2022/04/02 06:04:03;;;;;;;11.48;6.85;;;-0.60;99.90;;;;;;5018730;28;20036;-75
2022/04/02 06:06:29;;;;;;;9.85;6.70;;;-0.50;99.90;;;;;;5022881;28;20072;-76
2022/04/02 06:08:54;;;;;;;10.82;7.05;;;-0.50;99.90;;;;;;5029295;28;20116;-75
2022/04/02 06:11:20;;;;;;;8.60;7.07;;;-0.50;99.90;;;;;;5021816;28;20071;-75
2022/04/02 06:13:46;;;;;;;10.73;7.72;;;-0.40;99.90;;;;;;5030205;28;20022;-75
2022/04/02 06:16:11;;;;;;;11.32;9.00;;;-0.50;99.90;;;;;;5032106;28;20096;-75
2022/04/02 06:18:37;;;;;;;9.80;7.55;;;-0.50;99.90;;;;;;5048374;28;20028;-75
2022/04/02 06:21:03;;;;;;;11.27;8.27;;;-0.60;99.90;;;;;;5022756;28;20044;-75
2022/04/02 06:23:30;;;;;;;11.25;8.32;;;-0.60;99.90;;;;;;5030461;28;20021;-75
2022/04/02 06:25:56;;;;;;;9.98;8.23;;;-0.50;99.90;;;;;;5033206;28;20026;-75
2022/04/02 06:28:22;;;;;;;15.65;8.48;;;-0.50;99.90;;;;;;5019946;28;20022;-75
2022/04/02 06:30:48;;;;;;;10.68;8.68;;;-0.60;99.90;;;;;;5022463;28;20033;-75
2022/04/02 06:33:13;;;;;;;11.18;9.75;;;-0.50;99.90;;;;;;5028234;28;20112;-75
2022/04/02 06:35:39;;;;;;;13.02;9.27;;;-0.50;99.90;;;;;;5032863;28;20483;-75
2022/04/02 06:38:04;;;;;;;11.52;9.52;;;-0.50;99.90;;;;;;5018897;28;20018;-75
2022/04/02 06:40:30;;;;;;;11.48;9.30;;;-0.10;99.90;;;;;;5022843;28;20088;-75
2022/04/02 06:42:57;;;;;;;10.88;9.15;;;-0.10;99.90;;;;;;5029825;28;20029;-75
2022/04/02 06:45:23;;;;;;;11.75;9.38;;;-0.10;99.90;;;;;;5032841;28;20022;-75
2022/04/02 06:47:49;;;;;;;14.32;10.63;;;-0.30;99.90;;;;;;5019508;28;20480;-75
2022/04/02 06:50:15;;;;;;;11.85;10.65;;;-0.40;99.90;;;;;;5038589;28;20025;-75
2022/04/02 06:52:42;;;;;;;12.45;10.70;;;-0.40;99.90;;;;;;5028391;28;20155;-75
2022/04/02 06:55:08;;;;;;;12.80;11.43;;;-0.30;99.90;;;;;;5023822;28;20483;-75
2022/04/02 06:57:51;;;;;;;13.00;11.70;;;-0.50;99.90;;;;;;5028196;28;20037;-75
2022/04/02 07:00:17;;;;;;;13.80;12.05;;;-0.40;99.90;;;;;;5008047;28;20029;-75
2022/04/02 07:02:42;;;;;;;13.30;12.00;;;-0.30;99.90;;;;;;5019229;28;20029;-76
2022/04/02 07:05:08;;;;;;;14.50;12.55;;;-0.40;99.90;;;;;;5040911;28;20040;-75
2022/04/02 07:07:34;;;;;;;13.82;12.05;;;-0.30;99.90;;;;;;5031917;28;20097;-75
2022/04/02 07:09:59;;;;;;;13.80;12.50;;;-0.50;99.90;;;;;;5020374;28;20116;-75
2022/04/02 07:12:25;;;;;;;14.93;13.23;;;-0.40;99.90;;;;;;5025819;28;20030;-75
2022/04/02 07:14:50;;;;;;;14.27;12.35;;;-0.40;99.90;;;;;;5025239;28;20025;-75
2022/04/02 07:17:16;;;;;;;14.30;12.88;;;-0.40;99.90;;;;;;5025134;28;20033;-75
2022/04/02 07:19:42;;;;;;;16.20;12.68;;;-0.20;99.90;;;;;;5025236;28;20029;-76
2022/04/02 07:22:09;;;;;;;15.88;12.70;;;-0.10;99.90;;;;;;5017586;28;20026;-75
2022/04/02 07:24:38;;;;;;;14.90;13.43;;;-0.20;99.90;;;;;;5018064;28;20570;-75
2022/04/02 07:27:04;;;;;;;13.68;12.25;;;0.00;99.90;;;;;;5025980;28;20022;-75
2022/04/02 07:29:32;;;;;;;14.15;11.68;;;0.10;99.90;;;;;;5025240;28;20082;-75
2022/04/02 07:31:57;;;;;;;13.75;12.38;;;0.10;99.90;;;;;;5017983;28;20440;-75
2022/04/02 07:34:23;;;;;;;12.93;11.57;;;0.10;99.90;;;;;;5017699;28;20122;-75
2022/04/02 07:37:08;;;;;;;13.13;11.65;;;0.20;99.90;;;;;;5018874;28;20083;-75
2022/04/02 07:39:57;;;;;;;11.57;10.48;;;0.20;99.90;;;;;;5017528;28;20026;-76
2022/04/02 07:42:27;;;;;;;12.18;10.98;;;0.10;99.90;;;;;;5030439;28;20075;-74
2022/04/02 07:45:03;;;;;;;13.38;10.90;;;0.30;99.90;;;;;;5007912;28;20050;-75
2022/04/02 07:47:37;;;;;;;11.20;10.00;;;0.20;99.90;;;;;;5025171;28;20076;-74
2022/04/02 07:50:06;;;;;;;13.65;10.30;;;0.20;99.90;;;;;;5020505;28;20022;-74
2022/04/02 07:52:32;;;;;;;15.90;14.18;;;0.10;99.90;;;;;;5034404;28;20030;-75
2022/04/02 07:55:00;;;;;;;13.13;10.80;;;0.00;99.90;;;;;;5022426;28;20091;-73
2022/04/02 07:57:37;;;;;;;11.30;10.20;;;0.10;99.90;;;;;;5025336;28;20499;-76
2022/04/02 08:00:06;;;;;;;11.00;10.00;;;0.10;99.90;;;;;;5023008;28;20055;-77
2022/04/02 08:02:39;;;;;;;11.75;10.43;;;0.20;99.90;;;;;;5018240;28;20026;-75
2022/04/02 08:05:07;;;;;;;10.98;9.88;;;0.30;99.90;;;;;;5019193;28;20037;-75
2022/04/02 08:07:35;;;;;;;11.32;10.25;;;0.30;99.90;;;;;;5023479;28;20116;-75
2022/04/02 08:10:05;;;;;;;12.70;10.27;;;0.40;99.90;;;;;;5020161;28;20080;-75
2022/04/02 08:12:34;;;;;;;10.43;9.35;;;0.40;99.90;;;;;;5042963;28;20399;-75
2022/04/02 08:15:00;;;;;;;10.68;9.57;;;0.30;99.90;;;;;;5038570;28;20049;-75
2022/04/02 08:17:27;;;;;;;11.10;9.65;;;0.30;99.90;;;;;;5036739;28;20124;-75
2022/04/02 08:19:53;;;;;;;11.43;10.20;;;0.50;99.90;;;;;;5034747;28;20021;-75
2022/04/02 08:22:19;;;;;;;11.52;9.65;;;0.50;99.90;;;;;;5022572;28;20064;-76
2022/04/02 08:24:45;;;;;;;10.48;9.38;;;0.30;99.90;;;;;;5033555;28;20108;-75
2022/04/02 08:27:31;;;;;;;13.80;9.98;;;0.40;99.90;;;;;;5022718;28;20547;-75
2022/04/02 08:30:05;;;;;;;11.48;10.27;;;0.40;99.90;;;;;;5018930;28;20072;-75
2022/04/02 08:32:58;;;;;;;10.32;9.32;;;0.40;99.90;;;;;;5024551;28;20033;-75
2022/04/02 08:35:29;;;;;;;10.93;9.80;;;0.50;99.90;;;;;;5027209;28;20369;-75
2022/04/02 08:38:19;;;;;;;10.43;9.32;;;0.50;99.90;;;;;;5028659;28;20134;-75
2022/04/02 08:41:22;;;;;;;10.60;9.13;;;0.70;99.90;;;;;;5026856;28;20056;-75
2022/04/02 08:43:59;;;;;;;10.68;9.68;;;0.90;99.90;;;;;;5030894;28;20025;-76
2022/04/02 08:46:36;;;;;;;10.55;9.45;;;0.80;99.90;;;;;;5030045;28;20479;-76
2022/04/02 08:49:16;;;;;;;11.73;10.35;;;0.60;99.90;;;;;;5027868;28;20054;-76
2022/04/02 08:51:47;;;;;;;10.85;9.85;;;0.70;99.90;;;;;;5030319;28;20100;-76
2022/04/02 08:54:26;;;;;;;11.15;10.05;;;0.90;99.90;;;;;;5035130;28;20391;-75
2022/04/02 08:56:57;;;;;;;11.48;10.38;;;0.90;99.90;;;;;;5024702;28;20029;-75
2022/04/02 08:59:39;;;;;;;12.00;10.80;;;1.00;99.90;;;;;;5029427;28;20026;-75
2022/04/02 09:02:25;;;;;;;12.88;11.57;;;0.80;99.90;;;;;;5027444;28;20025;-75
2022/04/02 09:05:09;;;;;;;11.50;10.40;;;0.80;99.90;;;;;;5023294;28;20388;-75
2022/04/02 09:08:00;;;;;;;12.48;11.00;;;0.80;99.90;;;;;;5032712;28;20537;-76
2022/04/02 09:11:00;;;;;;;12.20;10.98;;;1.00;99.90;;;;;;5021486;28;20026;-75
2022/04/02 09:13:56;;;;;;;12.57;11.38;;;1.00;99.90;;;;;;5039181;28;20022;-75
2022/04/02 09:16:36;;;;;;;13.65;12.25;;;1.00;99.90;;;;;;5016356;28;20025;-75
2022/04/02 09:19:11;;;;;;;13.32;11.93;;;1.20;99.90;;;;;;5032075;28;20102;-75
2022/04/02 09:22:04;;;;;;;12.73;11.52;;;1.20;99.90;;;;;;5034142;28;20507;-75
2022/04/02 09:24:56;;;;;;;13.07;11.88;;;1.50;99.90;;;;;;5034207;28;20056;-75
2022/04/02 09:27:59;;;;;;;14.13;12.23;;;1.00;99.90;;;;;;5022159;28;20021;-75
2022/04/02 09:30:43;;;;;;;13.18;11.88;;;1.10;99.90;;;;;;5019481;28;20021;-75
2022/04/02 09:33:40;;;;;;;13.45;12.07;;;1.20;99.90;;;;;;5033781;28;20029;-75
2022/04/02 09:36:23;;;;;;;14.35;12.82;;;1.30;99.90;;;;;;5028234;28;20124;-75
2022/04/02 09:39:13;;;;;;;14.95;12.63;;;1.30;99.90;;;;;;5024261;28;20026;-75
2022/04/02 09:41:50;;;;;;;14.98;13.45;;;1.40;99.90;;;;;;5027255;28;20144;-75
2022/04/02 09:44:36;;;;;;;14.90;11.98;;;1.80;99.90;;;;;;5027437;28;20025;-76
2022/04/02 09:47:23;;;;;;;13.38;11.98;;;1.70;99.90;;;;;;5023606;28;20060;-75
2022/04/02 09:50:09;;;;;;;13.48;12.27;;;1.70;99.90;;;;;;5020709;28;20499;-75
2022/04/02 09:52:37;;;;;;;14.40;12.70;;;1.80;99.90;;;;;;5020418;28;20109;-75
2022/04/02 09:55:21;;;;;;;14.15;12.75;;;1.90;99.90;;;;;;5030446;28;20053;-75
2022/04/02 09:58:12;;;;;;;14.07;12.40;;;2.10;99.90;;;;;;5020113;28;20025;-76
2022/04/02 10:01:01;;;;;;;13.50;12.20;;;2.10;99.90;;;;;;5034852;28;20428;-74
2022/04/02 10:03:45;;;;;;;13.07;11.77;;;2.10;99.90;;;;;;5031526;28;20021;-75
2022/04/02 10:06:36;;;;;;;12.23;11.00;;;2.10;99.90;;;;;;5041527;28;20180;-75
2022/04/02 10:09:04;;;;;;;12.07;10.38;;;2.20;99.90;;;;;;5017449;28;20025;-75
2022/04/02 10:11:31;;;;;;;12.43;11.13;;;2.10;99.90;;;;;;5044777;28;20491;-74
2022/04/02 10:13:59;;;;;;;12.32;11.13;;;2.10;99.90;;;;;;5031588;28;20472;-76
2022/04/02 10:16:25;;;;;;;11.05;9.98;;;2.30;99.90;;;;;;5045553;28;20060;-75
2022/04/02 10:18:58;;;;;;;11.98;10.63;;;2.00;99.90;;;;;;5041351;28;20022;-74
2022/04/02 10:21:24;;;;;;;14.88;11.20;;;2.00;99.90;;;;;;5037505;28;20017;-75
2022/04/02 10:24:24;;;;;;;11.23;10.15;;;2.10;99.90;;;;;;5040743;28;20491;-75
2022/04/02 10:26:58;;;;;;;10.85;9.68;;;2.00;99.90;;;;;;5021464;28;20021;-75
2022/04/02 10:29:59;;;;;;;11.35;9.52;;;2.00;99.90;;;;;;5022715;28;20017;-74
2022/04/02 10:35:46;;;;;;;10.32;9.18;;;2.10;99.90;;;;;;5040771;28;20028;-75
2022/04/02 10:38:32;;;;;;;9.88;8.82;;;1.90;99.90;;;;;;5048807;28;20052;-75
2022/04/02 10:40:59;;;;;;;10.85;8.63;;;1.90;99.90;;;;;;5016057;28;20143;-74
2022/04/02 10:43:27;;;;;;;8.63;7.82;;;1.80;99.90;;;;;;5017767;28;20028;-74
2022/04/02 10:45:54;;;;;;;10.50;8.65;;;1.90;99.90;;;;;;5047715;28;20431;-75
2022/04/02 10:48:28;;;;;;;9.30;8.27;;;2.00;99.90;;;;;;5044419;28;20021;-76
2022/04/02 10:50:55;;;;;;;9.18;8.27;;;2.20;99.90;;;;;;5042295;28;20095;-75
2022/04/02 10:53:22;;;;;;;9.20;8.30;;;2.00;99.90;;;;;;5044056;28;20029;-76
2022/04/02 10:55:53;;;;;;;9.10;8.30;;;2.30;99.90;;;;;;5040241;28;20025;-76
2022/04/02 10:58:20;;;;;;;10.15;9.13;;;2.40;99.90;;;;;;5025121;28;20021;-74
2022/04/02 11:00:47;;;;;;;9.48;8.55;;;2.50;99.90;;;;;;5043288;28;20096;-76
2022/04/02 11:03:27;;;;;;;9.73;8.75;;;2.50;99.90;;;;;;5040295;28;20026;-76
2022/04/02 11:05:53;;;;;;;9.98;9.00;;;2.40;99.90;;;;;;5019283;28;20029;-75
2022/04/02 11:08:22;;;;;;;9.20;8.30;;;2.30;99.90;;;;;;5032406;28;20075;-74
2022/04/02 11:10:48;;;;;;;9.77;8.82;;;2.40;99.90;;;;;;5017522;28;20079;-75
2022/04/02 11:13:28;;;;;;;9.75;8.82;;;2.40;99.90;;;;;;5040670;28;20030;-75
2022/04/02 11:15:53;;;;;;;9.60;8.80;;;2.10;99.90;;;;;;5020538;28;20031;-76
2022/04/02 11:18:19;;;;;;;10.40;9.40;;;2.20;99.90;;;;;;5026623;28;20038;-75
2022/04/02 11:20:47;;;;;;;9.35;8.55;;;2.50;99.90;;;;;;5019819;28;20510;-75
2022/04/02 11:23:20;;;;;;;9.40;8.50;;;2.60;99.90;;;;;;5017581;28;20432;-75
2022/04/02 11:25:50;;;;;;;10.82;9.80;;;2.60;99.90;;;;;;5021204;28;20051;-75
2022/04/02 11:28:17;;;;;;;9.13;7.78;;;2.60;99.90;;;;;;5024373;28;20476;-75
2022/04/02 11:31:02;;;;;;;11.10;9.55;;;2.50;99.90;;;;;;5021641;28;20026;-76
2022/04/02 11:33:27;;;;;;;10.13;9.13;;;2.50;99.90;;;;;;5033819;28;20484;-76
2022/04/02 11:35:58;;;;;;;10.05;9.13;;;2.50;99.90;;;;;;5028166;28;20075;-77
2022/04/02 11:38:42;;;;;;;10.07;9.18;;;2.70;99.90;;;;;;5025656;28;20049;-75
2022/04/02 11:41:30;;;;;;;9.57;8.68;;;2.70;99.90;;;;;;5025006;28;20026;-75
2022/04/02 11:44:10;;;;;;;12.77;8.45;;;2.60;99.90;;;;;;5023489;28;20455;-76
2022/04/02 11:46:59;;;;;;;10.80;8.32;;;2.70;99.90;;;;;;5001234;28;20105;-75
2022/04/02 11:49:33;;;;;;;9.80;8.32;;;2.70;99.90;;;;;;5038260;28;20029;-75
2022/04/02 11:52:05;;;;;;;9.63;8.63;;;2.70;99.90;;;;;;5020105;28;20025;-76
2022/04/02 11:54:37;;;;;;;9.27;8.38;;;2.70;99.90;;;;;;5012382;28;20048;-76
2022/04/02 11:57:11;;;;;;;10.13;8.80;;;2.90;99.90;;;;;;5019722;28;20088;-75
2022/04/02 11:59:37;;;;;;;8.75;7.93;;;3.10;99.90;;;;;;5014581;28;20072;-76
2022/04/02 12:02:04;;;;;;;9.38;8.48;;;3.20;99.90;;;;;;5024735;28;20709;-74
2022/04/02 12:04:30;;;;;;;8.82;7.93;;;3.50;99.90;;;;;;5031019;28;20475;-75
2022/04/02 12:07:06;;;;;;;9.40;7.88;;;3.60;99.90;;;;;;5030786;28;20053;-74
2022/04/02 12:09:33;;;;;;;9.02;7.50;;;3.20;99.90;;;;;;5022693;28;20037;-74
2022/04/02 12:12:04;;;;;;;11.15;8.75;;;3.30;99.90;;;;;;5028751;28;20021;-75
2022/04/02 12:14:29;;;;;;;8.25;7.45;;;3.30;99.90;;;;;;5024910;28;20026;-74
2022/04/02 12:16:59;;;;;;;8.40;7.47;;;3.40;99.90;;;;;;5031455;28;20021;-75
2022/04/02 12:19:47;;;;;;;8.93;8.02;;;3.50;99.90;;;;;;5031869;28;20028;-74
2022/04/02 12:22:27;;;;;;;8.75;8.05;;;3.50;99.90;;;;;;5028726;28;20071;-74
2022/04/02 12:24:54;;;;;;;8.75;7.95;;;3.30;99.90;;;;;;5029271;28;20083;-74
2022/04/02 12:27:22;;;;;;;7.93;7.13;;;3.40;99.90;;;;;;5002749;28;20092;-75
2022/04/02 12:29:50;;;;;;;8.88;8.05;;;3.30;99.90;;;;;;5018561;28;20022;-74
2022/04/02 12:32:44;;;;;;;9.40;8.43;;;3.40;99.90;;;;;;5022237;28;20379;-74
2022/04/02 12:35:09;;;;;;;9.40;8.60;;;3.60;99.90;;;;;;5023796;28;20029;-74
2022/04/02 12:37:44;;;;;;;8.00;7.25;;;3.50;99.90;;;;;;5029396;28;20160;-73
2022/04/02 12:40:22;;;;;;;8.10;7.10;;;3.50;99.90;;;;;;5001696;28;20045;-74
2022/04/02 12:43:05;;;;;;;8.20;7.38;;;3.60;99.90;;;;;;5018336;28;20164;-75
2022/04/02 12:45:32;;;;;;;8.93;6.97;;;3.80;99.90;;;;;;5026458;28;20372;-73
2022/04/02 12:48:10;;;;;;;7.43;6.68;;;3.90;99.90;;;;;;5029974;28;20026;-74
2022/04/02 12:50:56;;;;;;;7.70;6.15;;;3.70;99.90;;;;;;5030646;28;20100;-74
2022/04/02 12:53:33;;;;;;;7.78;5.70;;;4.00;99.90;;;;;;5020444;28;20087;-74
2022/04/02 12:56:01;;;;;;;7.13;5.82;;;4.10;99.90;;;;;;5018022;28;20040;-74
2022/04/02 12:58:36;;;;;;;5.90;5.40;;;3.80;99.90;;;;;;5020497;28;20034;-74
2022/04/02 13:01:13;;;;;;;7.60;5.68;;;3.80;99.90;;;;;;5023017;28;20107;-74